sensor_id;sensor_type;location;lat;lon;timestamp;temperature;humidity
7030;DHT22;3556;53.500;10.176;2022-08-19T00:01:25;19.30;99.90
7030;DHT22;3556;53.500;10.176;2022-08-19T00:03:52;19.30;99.90
7030;DHT22;3556;53.500;10.176;2022-08-19T00:06:19;19.30;99.90
7030;DHT22;3556;53.500;10.176;2022-08-19T00:08:45;19.30;99.90
7030;DHT22;3556;53.500;10.176;2022-08-19T00:11:12;19.30;99.90
7030;DHT22;3556;53.500;10.176;2022-08-19T00:13:38;19.30;99.90
7030;DHT22;3556;53.500;10.176;2022-08-19T00:16:04;19.30;99.90
7030;DHT22;3556;53.500;10.176;2022-08-19T00:18:31;19.20;99.90
7030;DHT22;3556;53.500;10.176;2022-08-19T00:20:57;19.20;99.90
7030;DHT22;3556;53.500;10.176;2022-08-19T00:23:25;19.20;99.90
7030;DHT22;3556;53.500;10.176;2022-08-19T00:26:02;19.20;99.90
7030;DHT22;3556;53.500;10.176;2022-08-19T00:28:28;19.20;99.90
7030;DHT22;3556;53.500;10.176;2022-08-19T00:30:54;19.20;99.90
7030;DHT22;3556;53.500;10.176;2022-08-19T00:33:21;19.20;99.90
7030;DHT22;3556;53.500;10.176;2022-08-19T00:35:46;19.20;99.90
7030;DHT22;3556;53.500;10.176;2022-08-19T00:38:12;19.20;99.90
7030;DHT22;3556;53.500;10.176;2022-08-19T00:40:38;19.20;99.90
7030;DHT22;3556;53.500;10.176;2022-08-19T00:43:11;19.20;99.90
7030;DHT22;3556;53.500;10.176;2022-08-19T00:45:39;19.20;99.90
7030;DHT22;3556;53.500;10.176;2022-08-19T00:48:07;19.20;99.90
7030;DHT22;3556;53.500;10.176;2022-08-19T00:50:33;19.20;99.90
7030;DHT22;3556;53.500;10.176;2022-08-19T00:52:59;19.20;99.90
7030;DHT22;3556;53.500;10.176;2022-08-19T00:55:31;19.20;99.90
7030;DHT22;3556;53.500;10.176;2022-08-19T00:58:03;19.20;99.90
7030;DHT22;3556;53.500;10.176;2022-08-19T01:00:31;19.20;99.90
7030;DHT22;3556;53.500;10.176;2022-08-19T01:02:57;19.20;99.90
7030;DHT22;3556;53.500;10.176;2022-08-19T01:05:25;19.20;99.90
7030;DHT22;3556;53.500;10.176;2022-08-19T01:07:53;19.20;99.90
7030;DHT22;3556;53.500;10.176;2022-08-19T01:10:24;19.20;99.90
7030;DHT22;3556;53.500;10.176;2022-08-19T01:12:51;19.20;99.90
7030;DHT22;3556;53.500;10.176;2022-08-19T01:15:25;19.20;99.90
7030;DHT22;3556;53.500;10.176;2022-08-19T01:17:53;19.10;99.90
7030;DHT22;3556;53.500;10.176;2022-08-19T01:20:21;19.20;99.90
7030;DHT22;3556;53.500;10.176;2022-08-19T01:22:53;19.20;99.90
7030;DHT22;3556;53.500;10.176;2022-08-19T01:25:44;19.20;99.90
7030;DHT22;3556;53.500;10.176;2022-08-19T01:28:23;19.20;99.90
7030;DHT22;3556;53.500;10.176;2022-08-19T01:30:51;19.20;99.90
7030;DHT22;3556;53.500;10.176;2022-08-19T01:33:18;19.20;99.90
7030;DHT22;3556;53.500;10.176;2022-08-19T01:35:45;19.10;99.90
7030;DHT22;3556;53.500;10.176;2022-08-19T01:38:20;19.20;99.90
7030;DHT22;3556;53.500;10.176;2022-08-19T01:40:47;19.20;99.90
7030;DHT22;3556;53.500;10.176;2022-08-19T01:43:12;19.20;99.90
7030;DHT22;3556;53.500;10.176;2022-08-19T01:45:38;19.20;99.90
7030;DHT22;3556;53.500;10.176;2022-08-19T01:48:08;19.20;99.90
7030;DHT22;3556;53.500;10.176;2022-08-19T01:50:34;19.20;99.90
7030;DHT22;3556;53.500;10.176;2022-08-19T01:53:03;19.20;99.90
7030;DHT22;3556;53.500;10.176;2022-08-19T01:55:29;19.20;99.90
7030;DHT22;3556;53.500;10.176;2022-08-19T01:57:58;19.10;99.90
7030;DHT22;3556;53.500;10.176;2022-08-19T02:00:28;19.20;99.90
7030;DHT22;3556;53.500;10.176;2022-08-19T02:02:54;19.20;99.90
7030;DHT22;3556;53.500;10.176;2022-08-19T02:05:21;19.20;99.90
7030;DHT22;3556;53.500;10.176;2022-08-19T02:07:47;19.20;99.90
7030;DHT22;3556;53.500;10.176;2022-08-19T02:10:17;19.10;99.90
7030;DHT22;3556;53.500;10.176;2022-08-19T02:12:43;19.10;99.90
7030;DHT22;3556;53.500;10.176;2022-08-19T02:15:09;19.10;99.90
7030;DHT22;3556;53.500;10.176;2022-08-19T02:17:36;19.10;99.90
7030;DHT22;3556;53.500;10.176;2022-08-19T02:20:02;19.10;99.90
7030;DHT22;3556;53.500;10.176;2022-08-19T02:22:28;19.00;99.90
7030;DHT22;3556;53.500;10.176;2022-08-19T02:24:54;19.00;99.90
7030;DHT22;3556;53.500;10.176;2022-08-19T02:27:21;19.00;99.90
7030;DHT22;3556;53.500;10.176;2022-08-19T02:29:49;19.00;99.90
7030;DHT22;3556;53.500;10.176;2022-08-19T02:32:16;19.00;99.90
7030;DHT22;3556;53.500;10.176;2022-08-19T02:34:41;19.00;99.90
7030;DHT22;3556;53.500;10.176;2022-08-19T02:37:07;19.00;99.90
7030;DHT22;3556;53.500;10.176;2022-08-19T02:39:56;19.00;99.90
7030;DHT22;3556;53.500;10.176;2022-08-19T02:42:22;19.00;99.90
7030;DHT22;3556;53.500;10.176;2022-08-19T02:44:47;19.00;99.90
7030;DHT22;3556;53.500;10.176;2022-08-19T02:47:13;19.00;99.90
7030;DHT22;3556;53.500;10.176;2022-08-19T02:49:40;19.00;99.90
7030;DHT22;3556;53.500;10.176;2022-08-19T02:52:06;19.00;99.90
7030;DHT22;3556;53.500;10.176;2022-08-19T02:54:31;19.00;99.90
7030;DHT22;3556;53.500;10.176;2022-08-19T02:56:57;19.10;99.90
7030;DHT22;3556;53.500;10.176;2022-08-19T02:59:23;19.10;99.90
7030;DHT22;3556;53.500;10.176;2022-08-19T03:01:51;19.10;99.90
7030;DHT22;3556;53.500;10.176;2022-08-19T03:04:17;19.10;99.90
7030;DHT22;3556;53.500;10.176;2022-08-19T03:06:44;19.10;99.90
7030;DHT22;3556;53.500;10.176;2022-08-19T03:09:11;19.10;99.90
7030;DHT22;3556;53.500;10.176;2022-08-19T03:11:38;19.10;99.90
7030;DHT22;3556;53.500;10.176;2022-08-19T03:14:05;19.10;99.90
7030;DHT22;3556;53.500;10.176;2022-08-19T03:16:34;19.10;99.90
7030;DHT22;3556;53.500;10.176;2022-08-19T03:19:01;19.10;99.90
7030;DHT22;3556;53.500;10.176;2022-08-19T03:21:30;19.10;99.90
7030;DHT22;3556;53.500;10.176;2022-08-19T03:23:58;19.10;99.90
7030;DHT22;3556;53.500;10.176;2022-08-19T03:26:24;19.10;99.90
7030;DHT22;3556;53.500;10.176;2022-08-19T03:28:49;19.10;99.90
7030;DHT22;3556;53.500;10.176;2022-08-19T03:31:18;19.10;99.90
7030;DHT22;3556;53.500;10.176;2022-08-19T03:33:44;19.10;99.90
7030;DHT22;3556;53.500;10.176;2022-08-19T03:36:13;19.10;99.90
7030;DHT22;3556;53.500;10.176;2022-08-19T03:38:45;19.10;99.90
7030;DHT22;3556;53.500;10.176;2022-08-19T03:41:15;19.10;99.90
7030;DHT22;3556;53.500;10.176;2022-08-19T03:43:42;19.10;99.90
7030;DHT22;3556;53.500;10.176;2022-08-19T03:46:17;19.10;99.90
7030;DHT22;3556;53.500;10.176;2022-08-19T03:48:46;19.10;99.90
7030;DHT22;3556;53.500;10.176;2022-08-19T03:51:26;19.10;99.90
7030;DHT22;3556;53.500;10.176;2022-08-19T03:53:53;19.10;99.90
7030;DHT22;3556;53.500;10.176;2022-08-19T03:56:19;19.00;99.90
7030;DHT22;3556;53.500;10.176;2022-08-19T03:58:45;19.10;99.90
7030;DHT22;3556;53.500;10.176;2022-08-19T04:01:17;19.10;99.90
7030;DHT22;3556;53.500;10.176;2022-08-19T04:03:44;19.00;99.90
7030;DHT22;3556;53.500;10.176;2022-08-19T04:06:19;19.10;99.90
7030;DHT22;3556;53.500;10.176;2022-08-19T04:08:47;19.00;99.90
7030;DHT22;3556;53.500;10.176;2022-08-19T04:11:16;19.10;99.90
7030;DHT22;3556;53.500;10.176;2022-08-19T04:13:42;19.00;99.90
7030;DHT22;3556;53.500;10.176;2022-08-19T04:16:10;19.00;99.90
7030;DHT22;3556;53.500;10.176;2022-08-19T04:18:37;19.00;99.90
7030;DHT22;3556;53.500;10.176;2022-08-19T04:21:04;19.00;99.90
7030;DHT22;3556;53.500;10.176;2022-08-19T04:23:30;19.00;99.90
7030;DHT22;3556;53.500;10.176;2022-08-19T04:25:57;19.00;99.90
7030;DHT22;3556;53.500;10.176;2022-08-19T04:28:23;19.00;99.90
7030;DHT22;3556;53.500;10.176;2022-08-19T04:30:52;19.00;99.90
7030;DHT22;3556;53.500;10.176;2022-08-19T04:33:19;19.00;99.90
7030;DHT22;3556;53.500;10.176;2022-08-19T04:35:47;19.00;99.90
7030;DHT22;3556;53.500;10.176;2022-08-19T04:38:14;19.00;99.90
7030;DHT22;3556;53.500;10.176;2022-08-19T04:40:47;19.00;99.90
7030;DHT22;3556;53.500;10.176;2022-08-19T04:43:32;19.00;99.90
7030;DHT22;3556;53.500;10.176;2022-08-19T04:46:08;19.00;99.90
7030;DHT22;3556;53.500;10.176;2022-08-19T04:48:36;19.00;99.90
7030;DHT22;3556;53.500;10.176;2022-08-19T04:51:07;19.00;99.90
7030;DHT22;3556;53.500;10.176;2022-08-19T04:53:34;19.00;99.90
7030;DHT22;3556;53.500;10.176;2022-08-19T04:56:06;19.00;99.90
7030;DHT22;3556;53.500;10.176;2022-08-19T04:58:33;19.00;99.90
7030;DHT22;3556;53.500;10.176;2022-08-19T05:00:58;19.00;99.90
7030;DHT22;3556;53.500;10.176;2022-08-19T05:03:26;19.00;99.90
7030;DHT22;3556;53.500;10.176;2022-08-19T05:05:52;18.90;99.90
7030;DHT22;3556;53.500;10.176;2022-08-19T05:08:20;18.90;99.90
7030;DHT22;3556;53.500;10.176;2022-08-19T05:10:50;18.90;99.90
7030;DHT22;3556;53.500;10.176;2022-08-19T05:13:18;18.90;99.90
7030;DHT22;3556;53.500;10.176;2022-08-19T05:15:52;18.90;99.90
7030;DHT22;3556;53.500;10.176;2022-08-19T05:18:18;18.90;99.90
7030;DHT22;3556;53.500;10.176;2022-08-19T05:21:11;18.90;99.90
7030;DHT22;3556;53.500;10.176;2022-08-19T05:23:56;18.90;99.90
7030;DHT22;3556;53.500;10.176;2022-08-19T05:26:23;18.90;99.90
7030;DHT22;3556;53.500;10.176;2022-08-19T05:28:49;18.80;99.90
7030;DHT22;3556;53.500;10.176;2022-08-19T05:31:15;18.80;99.90
7030;DHT22;3556;53.500;10.176;2022-08-19T05:33:41;18.80;99.90
7030;DHT22;3556;53.500;10.176;2022-08-19T05:36:06;18.80;99.90
7030;DHT22;3556;53.500;10.176;2022-08-19T05:38:36;18.80;99.90
7030;DHT22;3556;53.500;10.176;2022-08-19T05:41:09;18.80;99.90
7030;DHT22;3556;53.500;10.176;2022-08-19T05:43:35;18.80;99.90
7030;DHT22;3556;53.500;10.176;2022-08-19T05:46:01;18.80;99.90
7030;DHT22;3556;53.500;10.176;2022-08-19T05:48:27;18.80;99.90
7030;DHT22;3556;53.500;10.176;2022-08-19T05:50:53;18.80;99.90
7030;DHT22;3556;53.500;10.176;2022-08-19T05:53:19;18.80;99.90
7030;DHT22;3556;53.500;10.176;2022-08-19T05:55:45;18.70;99.90
7030;DHT22;3556;53.500;10.176;2022-08-19T05:58:10;18.70;99.90
7030;DHT22;3556;53.500;10.176;2022-08-19T06:00:37;18.70;99.90
7030;DHT22;3556;53.500;10.176;2022-08-19T06:03:03;18.80;99.90
7030;DHT22;3556;53.500;10.176;2022-08-19T06:05:30;18.70;99.90
7030;DHT22;3556;53.500;10.176;2022-08-19T06:07:56;18.70;99.90
7030;DHT22;3556;53.500;10.176;2022-08-19T06:10:23;18.70;99.90
7030;DHT22;3556;53.500;10.176;2022-08-19T06:12:49;18.80;99.90
7030;DHT22;3556;53.500;10.176;2022-08-19T06:15:15;18.80;99.90
7030;DHT22;3556;53.500;10.176;2022-08-19T06:17:42;18.80;99.90
7030;DHT22;3556;53.500;10.176;2022-08-19T06:20:11;18.80;99.90
7030;DHT22;3556;53.500;10.176;2022-08-19T06:22:43;18.80;99.90
7030;DHT22;3556;53.500;10.176;2022-08-19T06:25:10;18.90;99.90
7030;DHT22;3556;53.500;10.176;2022-08-19T06:27:37;18.80;99.90
7030;DHT22;3556;53.500;10.176;2022-08-19T06:30:04;18.90;99.90
7030;DHT22;3556;53.500;10.176;2022-08-19T06:32:30;18.90;99.90
7030;DHT22;3556;53.500;10.176;2022-08-19T06:34:56;18.90;99.90
7030;DHT22;3556;53.500;10.176;2022-08-19T06:37:22;18.90;99.90
7030;DHT22;3556;53.500;10.176;2022-08-19T06:39:48;18.90;99.90
7030;DHT22;3556;53.500;10.176;2022-08-19T06:42:14;18.90;99.90
7030;DHT22;3556;53.500;10.176;2022-08-19T06:44:45;18.90;99.90
7030;DHT22;3556;53.500;10.176;2022-08-19T06:47:14;19.00;99.90
7030;DHT22;3556;53.500;10.176;2022-08-19T06:49:41;19.00;99.90
7030;DHT22;3556;53.500;10.176;2022-08-19T06:52:08;19.00;99.90
7030;DHT22;3556;53.500;10.176;2022-08-19T06:54:33;19.00;99.90
7030;DHT22;3556;53.500;10.176;2022-08-19T06:57:00;19.00;99.90
7030;DHT22;3556;53.500;10.176;2022-08-19T06:59:30;19.00;99.90
7030;DHT22;3556;53.500;10.176;2022-08-19T07:01:59;19.00;99.90
7030;DHT22;3556;53.500;10.176;2022-08-19T07:04:28;19.10;99.90
7030;DHT22;3556;53.500;10.176;2022-08-19T07:07:14;19.10;99.90
7030;DHT22;3556;53.500;10.176;2022-08-19T07:09:43;19.20;99.90
7030;DHT22;3556;53.500;10.176;2022-08-19T07:12:11;19.30;99.90
7030;DHT22;3556;53.500;10.176;2022-08-19T07:14:39;19.40;99.90
7030;DHT22;3556;53.500;10.176;2022-08-19T07:17:07;19.40;99.90
7030;DHT22;3556;53.500;10.176;2022-08-19T07:19:34;19.40;99.90
7030;DHT22;3556;53.500;10.176;2022-08-19T07:22:02;19.40;99.90
7030;DHT22;3556;53.500;10.176;2022-08-19T07:24:29;19.50;99.90
7030;DHT22;3556;53.500;10.176;2022-08-19T07:26:57;19.50;99.90
7030;DHT22;3556;53.500;10.176;2022-08-19T07:29:26;19.60;99.90
7030;DHT22;3556;53.500;10.176;2022-08-19T07:31:53;19.60;99.90
7030;DHT22;3556;53.500;10.176;2022-08-19T07:34:22;19.60;99.90
7030;DHT22;3556;53.500;10.176;2022-08-19T07:36:48;19.60;99.90
7030;DHT22;3556;53.500;10.176;2022-08-19T07:39:17;19.60;99.90
7030;DHT22;3556;53.500;10.176;2022-08-19T07:41:44;19.60;99.90
7030;DHT22;3556;53.500;10.176;2022-08-19T07:44:11;19.70;99.90
7030;DHT22;3556;53.500;10.176;2022-08-19T07:46:39;19.70;99.90
7030;DHT22;3556;53.500;10.176;2022-08-19T07:49:07;19.80;99.90
7030;DHT22;3556;53.500;10.176;2022-08-19T07:51:33;19.80;99.90
7030;DHT22;3556;53.500;10.176;2022-08-19T07:53:58;19.90;99.90
7030;DHT22;3556;53.500;10.176;2022-08-19T07:56:25;19.90;99.90
7030;DHT22;3556;53.500;10.176;2022-08-19T07:58:52;19.90;99.90
7030;DHT22;3556;53.500;10.176;2022-08-19T08:01:24;19.80;99.90
7030;DHT22;3556;53.500;10.176;2022-08-19T08:03:52;19.80;99.90
7030;DHT22;3556;53.500;10.176;2022-08-19T08:06:37;19.80;99.90
7030;DHT22;3556;53.500;10.176;2022-08-19T08:09:26;19.80;99.90
7030;DHT22;3556;53.500;10.176;2022-08-19T08:11:58;19.80;99.90
7030;DHT22;3556;53.500;10.176;2022-08-19T08:14:34;19.80;99.90
7030;DHT22;3556;53.500;10.176;2022-08-19T08:17:01;19.80;99.90
7030;DHT22;3556;53.500;10.176;2022-08-19T08:19:28;19.80;99.90
7030;DHT22;3556;53.500;10.176;2022-08-19T08:21:55;19.80;99.90
7030;DHT22;3556;53.500;10.176;2022-08-19T08:24:22;19.80;99.90
7030;DHT22;3556;53.500;10.176;2022-08-19T08:26:47;19.80;99.90
7030;DHT22;3556;53.500;10.176;2022-08-19T08:29:14;19.90;99.90
7030;DHT22;3556;53.500;10.176;2022-08-19T08:31:42;19.90;99.90
7030;DHT22;3556;53.500;10.176;2022-08-19T08:34:09;19.90;99.90
7030;DHT22;3556;53.500;10.176;2022-08-19T08:36:43;19.90;99.90
7030;DHT22;3556;53.500;10.176;2022-08-19T08:39:12;19.90;99.90
7030;DHT22;3556;53.500;10.176;2022-08-19T08:44:53;19.90;99.90
7030;DHT22;3556;53.500;10.176;2022-08-19T08:47:20;19.90;99.90
7030;DHT22;3556;53.500;10.176;2022-08-19T08:49:54;19.90;99.90
7030;DHT22;3556;53.500;10.176;2022-08-19T08:52:26;19.90;99.90
7030;DHT22;3556;53.500;10.176;2022-08-19T08:54:55;19.90;99.90
7030;DHT22;3556;53.500;10.176;2022-08-19T08:59:54;19.90;99.90
7030;DHT22;3556;53.500;10.176;2022-08-19T09:02:21;19.90;99.90
7030;DHT22;3556;53.500;10.176;2022-08-19T09:04:47;19.90;99.90
7030;DHT22;3556;53.500;10.176;2022-08-19T09:10:04;19.90;99.90
7030;DHT22;3556;53.500;10.176;2022-08-19T09:15:10;19.90;99.90
7030;DHT22;3556;53.500;10.176;2022-08-19T09:17:37;19.90;99.90
7030;DHT22;3556;53.500;10.176;2022-08-19T09:20:14;19.90;99.90
7030;DHT22;3556;53.500;10.176;2022-08-19T09:22:41;19.90;99.90
7030;DHT22;3556;53.500;10.176;2022-08-19T09:25:13;20.00;99.90
7030;DHT22;3556;53.500;10.176;2022-08-19T09:27:41;20.00;99.90
7030;DHT22;3556;53.500;10.176;2022-08-19T09:30:09;20.00;99.90
7030;DHT22;3556;53.500;10.176;2022-08-19T09:32:35;19.90;99.90
7030;DHT22;3556;53.500;10.176;2022-08-19T09:35:01;19.90;99.90
7030;DHT22;3556;53.500;10.176;2022-08-19T09:37:27;19.90;99.90
7030;DHT22;3556;53.500;10.176;2022-08-19T09:39:52;19.90;99.90
7030;DHT22;3556;53.500;10.176;2022-08-19T09:42:19;20.00;99.90
7030;DHT22;3556;53.500;10.176;2022-08-19T09:44:45;20.00;99.90
7030;DHT22;3556;53.500;10.176;2022-08-19T09:47:12;20.00;99.90
7030;DHT22;3556;53.500;10.176;2022-08-19T09:49:39;20.00;99.90
7030;DHT22;3556;53.500;10.176;2022-08-19T09:52:06;20.00;99.90
7030;DHT22;3556;53.500;10.176;2022-08-19T09:54:33;20.10;99.90
7030;DHT22;3556;53.500;10.176;2022-08-19T09:56:59;20.10;99.90
7030;DHT22;3556;53.500;10.176;2022-08-19T09:59:28;20.10;99.90
7030;DHT22;3556;53.500;10.176;2022-08-19T10:01:54;20.20;99.90
7030;DHT22;3556;53.500;10.176;2022-08-19T10:04:21;20.20;99.90
7030;DHT22;3556;53.500;10.176;2022-08-19T10:06:47;20.30;99.90
7030;DHT22;3556;53.500;10.176;2022-08-19T10:09:16;20.30;99.90
7030;DHT22;3556;53.500;10.176;2022-08-19T10:11:44;20.30;99.90
7030;DHT22;3556;53.500;10.176;2022-08-19T10:14:15;20.30;99.90
7030;DHT22;3556;53.500;10.176;2022-08-19T10:16:42;20.30;99.90
7030;DHT22;3556;53.500;10.176;2022-08-19T10:19:08;20.30;99.90
7030;DHT22;3556;53.500;10.176;2022-08-19T10:21:35;20.30;99.90
7030;DHT22;3556;53.500;10.176;2022-08-19T10:24:03;20.30;99.90
7030;DHT22;3556;53.500;10.176;2022-08-19T10:26:36;20.30;99.90
7030;DHT22;3556;53.500;10.176;2022-08-19T10:29:02;20.20;99.90
7030;DHT22;3556;53.500;10.176;2022-08-19T10:31:32;20.20;99.90
7030;DHT22;3556;53.500;10.176;2022-08-19T10:33:58;20.20;99.90
7030;DHT22;3556;53.500;10.176;2022-08-19T10:36:27;20.20;99.90
7030;DHT22;3556;53.500;10.176;2022-08-19T10:38:55;20.20;99.90
7030;DHT22;3556;53.500;10.176;2022-08-19T10:41:27;20.20;99.90
7030;DHT22;3556;53.500;10.176;2022-08-19T10:43:54;20.20;99.90
7030;DHT22;3556;53.500;10.176;2022-08-19T10:46:23;20.20;99.90
7030;DHT22;3556;53.500;10.176;2022-08-19T10:48:49;20.20;99.90
7030;DHT22;3556;53.500;10.176;2022-08-19T10:51:16;20.30;99.90
7030;DHT22;3556;53.500;10.176;2022-08-19T10:54:01;20.30;99.90
7030;DHT22;3556;53.500;10.176;2022-08-19T10:56:28;20.30;99.90
7030;DHT22;3556;53.500;10.176;2022-08-19T10:59:12;20.40;99.90
7030;DHT22;3556;53.500;10.176;2022-08-19T11:01:40;20.40;99.90
7030;DHT22;3556;53.500;10.176;2022-08-19T11:04:06;20.40;99.90
7030;DHT22;3556;53.500;10.176;2022-08-19T11:06:36;20.40;99.90
7030;DHT22;3556;53.500;10.176;2022-08-19T11:09:03;20.40;99.90
7030;DHT22;3556;53.500;10.176;2022-08-19T11:11:30;20.50;99.90
7030;DHT22;3556;53.500;10.176;2022-08-19T11:13:55;20.50;99.90
7030;DHT22;3556;53.500;10.176;2022-08-19T11:16:26;20.50;99.90
7030;DHT22;3556;53.500;10.176;2022-08-19T11:18:58;20.50;99.90
7030;DHT22;3556;53.500;10.176;2022-08-19T11:21:26;20.60;99.90
7030;DHT22;3556;53.500;10.176;2022-08-19T11:23:55;20.60;99.90
7030;DHT22;3556;53.500;10.176;2022-08-19T11:26:22;20.60;99.90
7030;DHT22;3556;53.500;10.176;2022-08-19T11:28:49;20.60;99.90
7030;DHT22;3556;53.500;10.176;2022-08-19T11:31:20;20.70;99.90
7030;DHT22;3556;53.500;10.176;2022-08-19T11:33:47;20.70;99.90
7030;DHT22;3556;53.500;10.176;2022-08-19T11:36:16;20.70;99.90
7030;DHT22;3556;53.500;10.176;2022-08-19T11:38:42;20.80;99.90
7030;DHT22;3556;53.500;10.176;2022-08-19T11:41:07;20.80;99.90
7030;DHT22;3556;53.500;10.176;2022-08-19T11:43:34;20.80;99.90
7030;DHT22;3556;53.500;10.176;2022-08-19T11:46:03;20.80;99.90
7030;DHT22;3556;53.500;10.176;2022-08-19T11:48:28;20.80;99.90
7030;DHT22;3556;53.500;10.176;2022-08-19T11:50:54;20.80;99.90
7030;DHT22;3556;53.500;10.176;2022-08-19T11:53:22;20.80;99.90
7030;DHT22;3556;53.500;10.176;2022-08-19T11:55:49;20.80;99.90
7030;DHT22;3556;53.500;10.176;2022-08-19T11:58:17;20.90;99.90
7030;DHT22;3556;53.500;10.176;2022-08-19T12:00:43;20.90;99.90
7030;DHT22;3556;53.500;10.176;2022-08-19T12:03:11;21.00;99.90
7030;DHT22;3556;53.500;10.176;2022-08-19T12:05:38;21.10;99.90
7030;DHT22;3556;53.500;10.176;2022-08-19T12:08:05;21.20;99.90
7030;DHT22;3556;53.500;10.176;2022-08-19T12:10:30;21.40;99.90
7030;DHT22;3556;53.500;10.176;2022-08-19T12:12:56;21.50;99.90
7030;DHT22;3556;53.500;10.176;2022-08-19T12:15:22;21.60;99.90
7030;DHT22;3556;53.500;10.176;2022-08-19T12:17:47;21.70;99.90
7030;DHT22;3556;53.500;10.176;2022-08-19T12:20:14;21.70;99.90
7030;DHT22;3556;53.500;10.176;2022-08-19T12:22:41;21.70;99.90
7030;DHT22;3556;53.500;10.176;2022-08-19T12:25:09;21.80;99.90
7030;DHT22;3556;53.500;10.176;2022-08-19T12:27:35;21.80;99.90
7030;DHT22;3556;53.500;10.176;2022-08-19T12:30:02;21.80;99.90
7030;DHT22;3556;53.500;10.176;2022-08-19T12:32:29;21.80;99.90
7030;DHT22;3556;53.500;10.176;2022-08-19T12:34:55;21.80;99.90
7030;DHT22;3556;53.500;10.176;2022-08-19T12:37:20;21.80;99.90
7030;DHT22;3556;53.500;10.176;2022-08-19T12:39:46;21.80;99.90
7030;DHT22;3556;53.500;10.176;2022-08-19T12:42:13;21.90;99.90
7030;DHT22;3556;53.500;10.176;2022-08-19T12:44:41;21.90;99.90
7030;DHT22;3556;53.500;10.176;2022-08-19T12:47:09;21.90;99.90
7030;DHT22;3556;53.500;10.176;2022-08-19T12:49:35;21.90;99.90
7030;DHT22;3556;53.500;10.176;2022-08-19T12:52:03;22.00;99.90
7030;DHT22;3556;53.500;10.176;2022-08-19T12:54:29;22.00;99.90
7030;DHT22;3556;53.500;10.176;2022-08-19T12:56:57;22.10;99.90
7030;DHT22;3556;53.500;10.176;2022-08-19T12:59:24;22.30;99.90
7030;DHT22;3556;53.500;10.176;2022-08-19T13:01:50;22.50;99.90
7030;DHT22;3556;53.500;10.176;2022-08-19T13:04:16;22.70;99.90
7030;DHT22;3556;53.500;10.176;2022-08-19T13:06:42;22.90;99.90
7030;DHT22;3556;53.500;10.176;2022-08-19T13:09:08;23.00;99.90
7030;DHT22;3556;53.500;10.176;2022-08-19T13:11:34;23.20;99.90
7030;DHT22;3556;53.500;10.176;2022-08-19T13:14:02;23.30;99.90
7030;DHT22;3556;53.500;10.176;2022-08-19T13:16:28;23.40;99.90
7030;DHT22;3556;53.500;10.176;2022-08-19T13:18:55;23.60;99.90
7030;DHT22;3556;53.500;10.176;2022-08-19T13:21:23;23.80;99.90
7030;DHT22;3556;53.500;10.176;2022-08-19T13:23:50;24.00;99.90
7030;DHT22;3556;53.500;10.176;2022-08-19T13:26:16;24.20;99.90
7030;DHT22;3556;53.500;10.176;2022-08-19T13:28:43;24.30;99.90
7030;DHT22;3556;53.500;10.176;2022-08-19T13:31:31;24.30;99.90
7030;DHT22;3556;53.500;10.176;2022-08-19T13:34:17;24.30;99.90
7030;DHT22;3556;53.500;10.176;2022-08-19T13:36:44;24.30;99.90
7030;DHT22;3556;53.500;10.176;2022-08-19T13:39:10;24.40;99.90
7030;DHT22;3556;53.500;10.176;2022-08-19T13:41:37;24.60;99.90
7030;DHT22;3556;53.500;10.176;2022-08-19T13:44:08;24.80;99.90
7030;DHT22;3556;53.500;10.176;2022-08-19T13:46:33;25.20;99.90
7030;DHT22;3556;53.500;10.176;2022-08-19T13:48:59;25.50;99.90
7030;DHT22;3556;53.500;10.176;2022-08-19T13:51:25;25.70;99.90
7030;DHT22;3556;53.500;10.176;2022-08-19T13:53:50;25.80;99.90
7030;DHT22;3556;53.500;10.176;2022-08-19T13:56:17;26.00;99.90
7030;DHT22;3556;53.500;10.176;2022-08-19T13:58:45;26.00;99.90
7030;DHT22;3556;53.500;10.176;2022-08-19T14:01:11;25.80;99.90
7030;DHT22;3556;53.500;10.176;2022-08-19T14:03:37;25.50;99.90
7030;DHT22;3556;53.500;10.176;2022-08-19T14:06:02;25.40;99.90
7030;DHT22;3556;53.500;10.176;2022-08-19T14:08:28;25.20;99.90
7030;DHT22;3556;53.500;10.176;2022-08-19T14:10:55;25.10;99.90
7030;DHT22;3556;53.500;10.176;2022-08-19T14:13:22;25.10;99.90
7030;DHT22;3556;53.500;10.176;2022-08-19T14:15:48;25.00;99.90
7030;DHT22;3556;53.500;10.176;2022-08-19T14:18:16;25.10;99.90
7030;DHT22;3556;53.500;10.176;2022-08-19T14:20:43;25.00;99.90
7030;DHT22;3556;53.500;10.176;2022-08-19T14:23:09;24.90;99.90
7030;DHT22;3556;53.500;10.176;2022-08-19T14:25:35;24.70;99.90
7030;DHT22;3556;53.500;10.176;2022-08-19T14:28:01;24.60;99.90
7030;DHT22;3556;53.500;10.176;2022-08-19T14:30:32;24.50;99.90
7030;DHT22;3556;53.500;10.176;2022-08-19T14:33:00;24.40;99.90
7030;DHT22;3556;53.500;10.176;2022-08-19T14:35:31;24.30;99.90
7030;DHT22;3556;53.500;10.176;2022-08-19T14:38:00;24.20;99.90
7030;DHT22;3556;53.500;10.176;2022-08-19T14:40:28;24.10;99.90
7030;DHT22;3556;53.500;10.176;2022-08-19T14:43:00;24.10;99.90
7030;DHT22;3556;53.500;10.176;2022-08-19T14:45:31;24.10;99.90
7030;DHT22;3556;53.500;10.176;2022-08-19T14:47:57;24.10;99.90
7030;DHT22;3556;53.500;10.176;2022-08-19T14:50:24;24.10;99.90
7030;DHT22;3556;53.500;10.176;2022-08-19T14:52:58;24.10;99.90
7030;DHT22;3556;53.500;10.176;2022-08-19T14:55:24;24.00;99.90
7030;DHT22;3556;53.500;10.176;2022-08-19T14:57:50;24.00;99.90
7030;DHT22;3556;53.500;10.176;2022-08-19T15:00:15;23.90;99.90
7030;DHT22;3556;53.500;10.176;2022-08-19T15:02:41;23.80;99.90
7030;DHT22;3556;53.500;10.176;2022-08-19T15:05:10;23.80;99.90
7030;DHT22;3556;53.500;10.176;2022-08-19T15:07:36;23.70;99.90
7030;DHT22;3556;53.500;10.176;2022-08-19T15:10:03;23.60;99.90
7030;DHT22;3556;53.500;10.176;2022-08-19T15:12:29;23.60;99.90
7030;DHT22;3556;53.500;10.176;2022-08-19T15:14:55;23.60;99.90
7030;DHT22;3556;53.500;10.176;2022-08-19T15:17:21;23.60;99.90
7030;DHT22;3556;53.500;10.176;2022-08-19T15:19:46;23.70;99.90
7030;DHT22;3556;53.500;10.176;2022-08-19T15:22:12;23.70;99.90
7030;DHT22;3556;53.500;10.176;2022-08-19T15:24:39;23.90;99.90
7030;DHT22;3556;53.500;10.176;2022-08-19T15:27:05;24.00;99.90
7030;DHT22;3556;53.500;10.176;2022-08-19T15:29:31;24.10;99.90
7030;DHT22;3556;53.500;10.176;2022-08-19T15:31:57;24.20;99.90
7030;DHT22;3556;53.500;10.176;2022-08-19T15:34:24;24.30;99.90
7030;DHT22;3556;53.500;10.176;2022-08-19T15:36:53;24.40;99.90
7030;DHT22;3556;53.500;10.176;2022-08-19T15:39:19;24.60;99.90
7030;DHT22;3556;53.500;10.176;2022-08-19T15:41:45;24.70;99.90
7030;DHT22;3556;53.500;10.176;2022-08-19T15:44:15;24.70;99.90
7030;DHT22;3556;53.500;10.176;2022-08-19T15:46:44;24.70;99.90
7030;DHT22;3556;53.500;10.176;2022-08-19T15:49:12;24.70;99.90
7030;DHT22;3556;53.500;10.176;2022-08-19T15:51:39;24.70;99.90
7030;DHT22;3556;53.500;10.176;2022-08-19T15:54:10;24.70;99.90
7030;DHT22;3556;53.500;10.176;2022-08-19T15:56:36;24.70;99.90
7030;DHT22;3556;53.500;10.176;2022-08-19T15:59:21;24.70;99.90
7030;DHT22;3556;53.500;10.176;2022-08-19T16:02:05;24.70;99.90